Station Historical Data
Daily Summary for March 16, 2019 Units:  Metric    English   Both
« Previous Day
Next Day »
Daily Weekly Monthly Yearly Custom
  High: Low: Average:
Temperature: -17.8 °C -13.6 °C -8.9 °C
Dew Point: -17.8 °C -15.3 °C -13.9 °C
Humidity: Humidity % 36 % 57 %
Wind Speed: 0 km/h 0 km/h 20.3 km/h
Wind Gust: 0 km/h - -
Wind:- - SW
Pressure: 0 hPa 34195.2 hPa -
Precipitation: 0 mm    
Historical Graphs
 
 
Tabular Data for March 16, 2019
Time Temperature Dew Point Pressure Wind Wind Speed Wind Gust Humidity Rainfall Rate (Hourly) solar Conditions
-17.8 °C -17.8 °C 0 hPa Calm     Humidity % 0 mm SolarRadiationWatts/m^2 W/m2 Conditions
00:04 -10.2 °C -14.4 °C 34229.1 hPa NW 18.2 km/h 14 km/h 60 % 0 mm 0.00 W/m2 FEW
00:09 -10.2 °C -14.4 °C 34229.1 hPa West 18.2 km/h 10.3 km/h 60 % 0 mm 0.00 W/m2 FEW
00:14 -10.2 °C -14.5 °C 34225.7 hPa West 20.9 km/h 12.9 km/h 60 % 0 mm 0.00 W/m2 FEW
00:18 -10.2 °C -14.3 °C 34229.1 hPa NW 20.9 km/h 13.7 km/h 61 % 0 mm 0.00 W/m2 FEW
00:23 -10.3 °C -14.4 °C 34225.7 hPa West 23.8 km/h 16.3 km/h 61 % 0 mm 0.00 W/m2 FEW
00:28 -10.3 °C -14.4 °C 34229.1 hPa West 23.8 km/h 18.3 km/h 61 % 0 mm 0.00 W/m2 FEW
00:33 -10.4 °C -14.5 °C 34229.1 hPa West 33.6 km/h 23.3 km/h 61 % 0 mm 0.00 W/m2 FEW
00:38 -10.3 °C -14.4 °C 34225.7 hPa WNW 29.8 km/h 20 km/h 61 % 0 mm 0.00 W/m2 FEW
00:44 -10.4 °C -14.5 °C 34229.1 hPa West 29.8 km/h 18.8 km/h 61 % 0 mm 0.00 W/m2 FEW
00:48 -10.4 °C -14.5 °C 34232.5 hPa SW 29.8 km/h 15.8 km/h 61 % 0 mm 0.00 W/m2 FEW
00:53 -10.4 °C -14.5 °C 34229.1 hPa West 23.8 km/h 15.6 km/h 61 % 0 mm 0.00 W/m2 FEW
00:59 -10.4 °C -14.5 °C 34232.5 hPa WSW 29.8 km/h 17.9 km/h 61 % 0 mm 0.00 W/m2 FEW
01:03 -10.4 °C -14.5 °C 34222.3 hPa West 36.2 km/h 22.5 km/h 61 % 0 mm 0.00 W/m2 FEW
01:08 -10.4 °C -14.5 °C 34225.7 hPa WNW 29.8 km/h 20 km/h 61 % 0 mm 0.00 W/m2 FEW
01:14 -10.4 °C -14.5 °C 34222.3 hPa West 33.6 km/h 20.8 km/h 61 % 0 mm 0.00 W/m2 FEW
01:18 -10.4 °C -14.5 °C 34222.3 hPa West 38.8 km/h 24.3 km/h 61 % 0 mm 0.00 W/m2 FEW
01:23 -10.3 °C -14.4 °C 34218.9 hPa West 23.8 km/h 17.1 km/h 61 % 0 mm 0.00 W/m2 FEW
01:29 -10.3 °C -14.6 °C 34225.7 hPa WNW 31.1 km/h 22.5 km/h 60 % 0 mm 0.00 W/m2 FEW
01:33 -10.2 °C -14.5 °C 34222.3 hPa WSW 29.8 km/h 20.8 km/h 60 % 0 mm 0.00 W/m2 FEW
01:38 -10.2 °C -14.4 °C 34222.3 hPa WNW 29.8 km/h 14.2 km/h 60 % 0 mm 0.00 W/m2 FEW
01:44 -10.2 °C -14.6 °C 34229.1 hPa West 33.6 km/h 18.3 km/h 59 % 0 mm 0.00 W/m2 FEW
01:48 -10.2 °C -14.6 °C 34225.7 hPa SW 25.9 km/h 17.1 km/h 59 % 0 mm 0.00 W/m2 FEW
01:53 -10.2 °C -14.6 °C 34222.3 hPa WSW 20.9 km/h 12.4 km/h 59 % 0 mm 0.00 W/m2 FEW
01:59 -10.2 °C -14.6 °C 34222.3 hPa West 23.8 km/h 15.8 km/h 59 % 0 mm 0.00 W/m2 FEW
02:04 -10.2 °C -14.6 °C 34225.7 hPa WNW 23.8 km/h 16.6 km/h 59 % 0 mm 0.00 W/m2 FEW
02:09 -10.3 °C -14.5 °C 34222.3 hPa West 23.8 km/h 13.7 km/h 60 % 0 mm 0.00 W/m2 FEW
02:14 -10.2 °C -14.6 °C 34225.7 hPa WSW 25.9 km/h 18.2 km/h 59 % 0 mm 0.00 W/m2 FEW
02:19 -10.2 °C -14.6 °C 34225.7 hPa NW 28.5 km/h 17.1 km/h 59 % 0 mm 0.00 W/m2 FEW
02:24 -10.2 °C -14.7 °C 34218.9 hPa West 18.2 km/h 11.9 km/h 58 % 0 mm 0.00 W/m2 FEW
02:29 -10.1 °C -14.6 °C 34218.9 hPa West 26.9 km/h 16.3 km/h 58 % 0 mm 0.00 W/m2 FEW
02:34 -10.1 °C -14.6 °C 34218.9 hPa WSW 29.8 km/h 20.4 km/h 58 % 0 mm 0.00 W/m2 FEW
02:39 -10.1 °C -14.6 °C 34215.5 hPa West 31.1 km/h 21.6 km/h 58 % 0 mm 0.00 W/m2 FEW
02:44 -10.1 °C -14.6 °C 34215.5 hPa West 25.9 km/h 17.5 km/h 58 % 0 mm 0.00 W/m2 FEW
02:48 -10.1 °C -14.6 °C 34215.5 hPa West 31.1 km/h 20 km/h 58 % 0 mm 0.00 W/m2 FEW
02:53 -10.2 °C -14.6 °C 34212.1 hPa WSW 29.8 km/h 17.9 km/h 59 % 0 mm 0.00 W/m2 FEW
02:58 -10.2 °C -14.6 °C 34208.8 hPa WSW 32.8 km/h 19.2 km/h 59 % 0 mm 0.00 W/m2 FEW
03:03 -10.2 °C -14.6 °C 34208.8 hPa WSW 29.8 km/h 17.1 km/h 59 % 0 mm 0.00 W/m2 FEW
03:08 -10.3 °C -14.7 °C 34208.8 hPa WSW 33.6 km/h 22 km/h 59 % 0 mm 0.00 W/m2 FEW
03:13 -10.3 °C -14.7 °C 34208.8 hPa SW 35.7 km/h 20.9 km/h 59 % 0 mm 0.00 W/m2 FEW
03:18 -10.3 °C -14.7 °C 34208.8 hPa West 31.1 km/h 19.2 km/h 59 % 0 mm 0.00 W/m2 FEW
03:24 -10.3 °C -14.7 °C 34208.8 hPa West 31.1 km/h 21.7 km/h 59 % 0 mm 0.00 W/m2 FEW
03:28 -10.3 °C -14.7 °C 34208.8 hPa West 29.8 km/h 18.7 km/h 59 % 0 mm 0.00 W/m2 FEW
03:33 -10.3 °C -14.7 °C 34208.8 hPa NW 23.8 km/h 15.6 km/h 59 % 0 mm 0.00 W/m2 FEW
03:39 -10.3 °C -14.7 °C 34208.8 hPa NW 18.2 km/h 11.6 km/h 59 % 0 mm 0.00 W/m2 FEW
03:43 -10.3 °C -14.7 °C 34208.8 hPa West 32.8 km/h 15.3 km/h 59 % 0 mm 0.00 W/m2 FEW
03:48 -10.3 °C -14.7 °C 34208.8 hPa WNW 23.8 km/h 15.3 km/h 59 % 0 mm 0.00 W/m2 FEW
03:54 -10.4 °C -14.6 °C 34208.8 hPa WNW 20.9 km/h 16.6 km/h 60 % 0 mm 0.00 W/m2 FEW
03:58 -10.4 °C -14.6 °C 34212.1 hPa West 11.9 km/h 6.8 km/h 60 % 0 mm 0.00 W/m2 FEW
04:03 -10.4 °C -14.7 °C 34212.1 hPa West 20.9 km/h 11.9 km/h 60 % 0 mm 0.00 W/m2 FEW
04:09 -10.4 °C -14.7 °C 34215.5 hPa West 20.9 km/h 11.4 km/h 60 % 0 mm 0.00 W/m2 FEW
04:13 -10.4 °C -14.7 °C 34215.5 hPa West 9 km/h 4.2 km/h 60 % 0 mm 0.00 W/m2 FEW
04:18 -10.5 °C -14.6 °C 34215.5 hPa WNW 18.2 km/h 6.3 km/h 61 % 0 mm 0.00 W/m2 FEW
04:24 -10.6 °C -14.6 °C 34208.8 hPa WSW 10.3 km/h 8.2 km/h 61 % 0 mm 0.00 W/m2 FEW
04:29 -10.6 °C -14.7 °C 34212.1 hPa West 6 km/h 1.8 km/h 61 % 0 mm 0.00 W/m2 FEW
04:33 -10.6 °C -14.6 °C 34222.3 hPa West 5.1 km/h 3.4 km/h 62 % 0 mm 0.00 W/m2 FEW
04:39 -10.7 °C -14.6 °C 34222.3 hPa NE 9 km/h 5 km/h 62 % 0 mm 0.00 W/m2 FEW
04:44 -10.8 °C -14.6 °C 34222.3 hPa ENE 6 km/h 3.7 km/h 63 % 0 mm 0.00 W/m2 FEW
04:49 -10.9 °C -14.7 °C 34222.3 hPa ENE 3.1 km/h 1.6 km/h 63 % 0 mm 0.00 W/m2 FEW
04:54 -11 °C -14.7 °C 34222.3 hPa NNE 9 km/h 5.1 km/h 64 % 0 mm 0.00 W/m2 FEW
04:59 -11.1 °C -14.8 °C 34225.7 hPa NW 3.1 km/h 1.3 km/h 64 % 0 mm 0.00 W/m2 FEW
05:04 -11.2 °C -14.7 °C 34225.7 hPa West 10.3 km/h 1.3 km/h 65 % 0 mm 0.00 W/m2 FEW
05:09 -11.2 °C -14.8 °C 34225.7 hPa West 6 km/h 3.1 km/h 65 % 0 mm 0.00 W/m2 FEW
05:14 -11.3 °C -14.7 °C 34225.7 hPa Calm     66 % 0 mm 0.00 W/m2 FEW
05:18 -11.3 °C -14.8 °C 34225.7 hPa West 9 km/h 5 km/h 66 % 0 mm 0.00 W/m2 FEW
05:23 -11.4 °C -14.7 °C 34229.1 hPa West 3.1 km/h 1.3 km/h 67 % 0 mm 0.00 W/m2 FEW
05:28 -11.4 °C -14.7 °C 34229.1 hPa Calm     67 % 0 mm 0.00 W/m2 FEW
05:34 -11.5 °C -14.7 °C 34229.1 hPa West 6 km/h 3.4 km/h 68 % 0 mm 0.00 W/m2 FEW
05:38 -11.6 °C -14.6 °C 34229.1 hPa West 6 km/h 3.4 km/h 69 % 0 mm 0.00 W/m2 FEW
05:43 -11.6 °C -14.6 °C 34229.1 hPa WSW 6 km/h 3.1 km/h 69 % 0 mm 0.00 W/m2 FEW
05:49 -11.6 °C -14.8 °C 34232.5 hPa WSW 6 km/h 2.1 km/h 68 % 0 mm 0.00 W/m2 FEW
05:53 -11.7 °C -14.8 °C 34232.5 hPa NW 10.3 km/h 7.2 km/h 68 % 0 mm 0.00 W/m2 FEW
05:58 -11.8 °C -14.7 °C 34235.8 hPa WNW 6 km/h 4.3 km/h 70 % 0 mm 0.00 W/m2 FEW
06:04 -11.8 °C -14.8 °C 34235.8 hPa Calm     70 % 0 mm 0.00 W/m2 FEW
06:08 -11.8 °C -14.8 °C 34232.5 hPa WNW 9 km/h 5 km/h 70 % 0 mm 0.00 W/m2 FEW
06:13 -11.8 °C -14.7 °C 34235.8 hPa WNW 3.1 km/h 1.8 km/h 71 % 0 mm 0.00 W/m2 FEW
06:19 -11.8 °C -14.7 °C 34239.2 hPa Calm     71 % 0 mm 0.00 W/m2 FEW
06:23 -11.9 °C -14.7 °C 34239.2 hPa NNE 7.7 km/h 1.3 km/h 71 % 0 mm 0.00 W/m2 FEW
06:28 -12.2 °C -14.9 °C 34239.2 hPa NNE 9 km/h 3.9 km/h 71 % 0 mm 0.00 W/m2 FEW
06:34 -12.4 °C -15.1 °C 34239.2 hPa NNE 3.1 km/h 0.5 km/h 72 % 0 mm 0.00 W/m2 FEW
06:38 -12.5 °C -15.1 °C 34242.6 hPa Calm     73 % 0 mm 0.00 W/m2 FEW
06:43 -12.7 °C -15.1 °C 34242.6 hPa NNE 3.1 km/h 1.3 km/h 74 % 0 mm 7.00 W/m2 FEW
06:49 -12.8 °C -15.2 °C 34246 hPa NNE 3.1 km/h 2.1 km/h 75 % 0 mm 12.00 W/m2 SCT
06:53 -12.9 °C -15.2 °C 34242.6 hPa Calm     75 % 0 mm 18.00 W/m2 SCT
06:58 -13 °C -15.2 °C 34246 hPa NNE 2.6 km/h 1.6 km/h 76 % 0 mm 25.00 W/m2 SCT
07:04 -13.2 °C -15.3 °C 34249.4 hPa NNE 9 km/h 6.3 km/h 77 % 0 mm 32.00 W/m2 SCT
07:08 -13.3 °C -15.3 °C 34252.8 hPa NNE 6 km/h 1 km/h 78 % 0 mm 39.00 W/m2 SCT
07:14 -13.4 °C -15.3 °C 34252.8 hPa Calm     79 % 0 mm 46.00 W/m2 SCT
07:19 -13.5 °C -15.3 °C 34256.2 hPa NNE 3.1 km/h   80 % 0 mm 54.00 W/m2 SCT
07:24 -13.6 °C -15.2 °C 34259.5 hPa NNE 3.1 km/h 1.3 km/h 81 % 0 mm 63.00 W/m2 SCT
07:29 -13.6 °C -15.2 °C 34259.5 hPa Calm     82 % 0 mm 72.00 W/m2 SCT
07:34 -13.6 °C -15.2 °C 34259.5 hPa Calm     82 % 0 mm 86.00 W/m2 FEW
07:39 -13.5 °C -15.1 °C 34262.9 hPa NNE 6 km/h 2.9 km/h 82 % 0 mm 102.00 W/m2 FEW
07:44 -13.4 °C -14.9 °C 34262.9 hPa NNE 3.1 km/h 1 km/h 83 % 0 mm 107.00 W/m2 FEW
07:48 -13.4 °C -14.9 °C 34259.5 hPa NW 6 km/h 4.2 km/h 83 % 0 mm 109.00 W/m2 FEW
07:53 -13.2 °C -14.7 °C 34262.9 hPa NW 9 km/h 6.3 km/h 83 % 0 mm 137.00 W/m2 FEW
07:58 -13 °C -14.5 °C 34262.9 hPa WNW 6 km/h 1.6 km/h 83 % 0 mm 130.00 W/m2 FEW
08:03 -12.7 °C -14.3 °C 34262.9 hPa West 6 km/h 1.3 km/h 82 % 0 mm 144.00 W/m2 FEW
08:08 -12.5 °C -14.2 °C 34266.3 hPa West 3.1 km/h 0.3 km/h 81 % 0 mm 160.00 W/m2 FEW
08:13 -12.3 °C -14.1 °C 34266.3 hPa NE 9 km/h 5.1 km/h 81 % 0 mm 186.00 W/m2 FEW
08:18 -12.1 °C -14.1 °C 34269.7 hPa NE 10.3 km/h 6.9 km/h 78 % 0 mm 257.00 W/m2 FEW
08:23 -11.9 °C -14.1 °C 34276.5 hPa NNE 9 km/h 6 km/h 77 % 0 mm 279.00 W/m2 CLR
08:29 -11.8 °C -14.1 °C 34276.5 hPa North 7.7 km/h 1.3 km/h 76 % 0 mm 316.00 W/m2 CLR
08:33 -11.7 °C -14.1 °C 34276.5 hPa North 10.3 km/h 7.6 km/h 75 % 0 mm 274.00 W/m2 CLR
08:38 -11.5 °C -14 °C 34276.5 hPa NE 9 km/h 3.1 km/h 74 % 0 mm 271.00 W/m2 CLR
08:44 -11.3 °C -13.8 °C 34279.9 hPa NE 6 km/h 3.1 km/h 74 % 0 mm 239.00 W/m2 CLR
08:48 -11.2 °C -13.8 °C 34279.9 hPa ESE 12.9 km/h 6.8 km/h 73 % 0 mm 250.00 W/m2 FEW
08:53 -11.1 °C -13.8 °C 34283.3 hPa Calm     72 % 0 mm 274.00 W/m2 FEW
08:59 -10.9 °C -13.6 °C 34279.9 hPa SW 9 km/h 3.9 km/h 72 % 0 mm 267.00 W/m2 FEW
09:03 -10.6 °C -13.3 °C 34283.3 hPa WSW 20.9 km/h 15.3 km/h 72 % 0 mm 301.00 W/m2 FEW
09:08 -10.2 °C -13.2 °C 34283.3 hPa West 20.9 km/h 11.1 km/h 70 % 0 mm 287.00 W/m2 FEW
09:14 -9.9 °C -13 °C 34283.3 hPa WNW 23.8 km/h 12.4 km/h 69 % 0 mm 315.00 W/m2 FEW
09:18 -9.7 °C -12.9 °C 34283.3 hPa WSW 20.9 km/h 17.1 km/h 68 % 0 mm 334.00 W/m2 FEW
09:23 -9.6 °C -12.9 °C 34286.6 hPa WNW 23.8 km/h 12.4 km/h 67 % 0 mm 348.00 W/m2 FEW
09:29 -9.4 °C -12.9 °C 34286.6 hPa WNW 18.2 km/h 11.9 km/h 66 % 0 mm 360.00 W/m2 FEW
09:33 -9.3 °C -12.9 °C 34286.6 hPa WSW 23.8 km/h 18.7 km/h 65 % 0 mm 367.00 W/m2 FEW
09:39 -9.2 °C -12.9 °C 34290 hPa WNW 20.9 km/h 13.7 km/h 64 % 0 mm 366.00 W/m2 FEW
09:44 -9.1 °C -12.8 °C 34290 hPa WSW 12.9 km/h 8 km/h 64 % 0 mm 353.00 W/m2 FEW
09:49 -8.9 °C -12.8 °C 34293.4 hPa WNW 15 km/h 7.6 km/h 63 % 0 mm 364.00 W/m2 FEW
09:54 -8.7 °C -12.8 °C 34293.4 hPa West 18.2 km/h 12.4 km/h 62 % 0 mm 371.00 W/m2 FEW
09:59 -8.6 °C -12.8 °C 34293.4 hPa WSW 23.8 km/h 16.1 km/h 61 % 0 mm 385.00 W/m2 FEW
10:04 -8.5 °C -12.7 °C 34293.4 hPa West 18.2 km/h 15 km/h 61 % 0 mm 408.00 W/m2 FEW
10:09 -8.4 °C -12.7 °C 34293.4 hPa West 26.9 km/h 15.6 km/h 60 % 0 mm 417.00 W/m2 FEW
10:14 -8.3 °C -12.8 °C 34290 hPa SW 23.8 km/h 16.1 km/h 59 % 0 mm 403.00 W/m2 FEW
10:19 -8.2 °C -12.7 °C 34293.4 hPa WSW 25.9 km/h 20.4 km/h 59 % 0 mm 418.00 W/m2 FEW
10:23 -8.2 °C -13 °C 34290 hPa West 36.2 km/h 24.6 km/h 57 % 0 mm 457.00 W/m2 FEW
10:28 -8.2 °C -13 °C 34293.4 hPa SSW 25.9 km/h 19.2 km/h 57 % 0 mm 512.00 W/m2 FEW
10:33 -8.1 °C -12.9 °C 34293.4 hPa West 20.8 km/h 10.1 km/h 57 % 0 mm 510.00 W/m2 CLR
10:38 -8 °C -12.9 °C 34293.4 hPa West 15.6 km/h 9.7 km/h 56 % 0 mm 485.00 W/m2 CLR
10:43 -7.8 °C -12.7 °C 34293.4 hPa West 12.9 km/h 6.3 km/h 56 % 0 mm 512.00 W/m2 CLR
10:48 -7.7 °C -12.6 °C 34290 hPa West 11.9 km/h 6 km/h 56 % 0 mm 480.00 W/m2 CLR
10:54 -7.5 °C -12.8 °C 34293.4 hPa SW 18.2 km/h 12.2 km/h 54 % 0 mm 483.00 W/m2 FEW
10:58 -7.5 °C -12.8 °C 34293.4 hPa West 31.1 km/h 23.3 km/h 54 % 0 mm 501.00 W/m2 FEW
11:03 -7.6 °C -12.8 °C 34293.4 hPa West 29.8 km/h 22 km/h 54 % 0 mm 369.00 W/m2 FEW
11:09 -7.6 °C -12.9 °C 34293.4 hPa WSW 29.8 km/h 18.8 km/h 54 % 0 mm 427.00 W/m2 SCT
11:13 -7.6 °C -12.7 °C 34296.8 hPa WSW 23.3 km/h 17.1 km/h 55 % 0 mm 450.00 W/m2 FEW
11:18 -7.5 °C -12.8 °C 34293.4 hPa WNW 25.9 km/h 15 km/h 54 % 0 mm 485.00 W/m2 FEW
11:24 -7.4 °C -12.7 °C 34290 hPa West 33.6 km/h 18.2 km/h 54 % 0 mm 476.00 W/m2 FEW
11:28 -7.4 °C -12.9 °C 34283.3 hPa WNW 32.8 km/h 19.5 km/h 52 % 0 mm 473.00 W/m2 FEW
11:33 -7.3 °C -12.9 °C 34283.3 hPa WSW 33.6 km/h 23 km/h 52 % 0 mm 566.00 W/m2 FEW
11:39 -7.2 °C -12.8 °C 34283.3 hPa WSW 44.7 km/h 20.9 km/h 52 % 0 mm 652.00 W/m2 CLR
11:43 -7.2 °C -12.8 °C 34279.9 hPa WSW 29.8 km/h 19.6 km/h 52 % 0 mm 657.00 W/m2 CLR
11:48 -7.1 °C -12.7 °C 34279.9 hPa West 29.8 km/h 8.5 km/h 52 % 0 mm 715.00 W/m2 CLR
11:54 -6.9 °C -12.7 °C 34279.9 hPa WSW 23.8 km/h 17.4 km/h 51 % 0 mm 596.00 W/m2 CLR
11:59 -6.8 °C -12.7 °C 34279.9 hPa SW 28.5 km/h 16.1 km/h 50 % 0 mm 596.00 W/m2 FEW
12:03 -6.7 °C -12.7 °C 34279.9 hPa West 31.1 km/h 24.6 km/h 50 % 0 mm 499.00 W/m2 FEW
12:09 -6.7 °C -13 °C 34276.5 hPa WNW 29.8 km/h 15.6 km/h 48 % 0 mm 483.00 W/m2 FEW
12:14 -6.6 °C -13.1 °C 34279.9 hPa West 38.8 km/h 30.1 km/h 47 % 0 mm 492.00 W/m2 FEW
12:18 -6.6 °C -12.9 °C 34276.5 hPa West 44.1 km/h 31.9 km/h 48 % 0 mm 575.00 W/m2 FEW
12:24 -6.7 °C -13.2 °C 34273.1 hPa West 38.8 km/h 29 km/h 47 % 0 mm 679.00 W/m2 CLR
12:29 -6.7 °C -13.2 °C 34266.3 hPa SW 41.4 km/h 30.1 km/h 47 % 0 mm 728.00 W/m2 CLR
12:33 -6.6 °C -13.2 °C 34266.3 hPa WSW 33.6 km/h 23.8 km/h 46 % 0 mm 659.00 W/m2 CLR
12:39 -6.4 °C -13.5 °C 34266.3 hPa SW 38.8 km/h 26.9 km/h 44 % 0 mm 619.00 W/m2 CLR
12:44 -6.3 °C -13.3 °C 34262.9 hPa WSW 36.2 km/h 25.1 km/h 44 % 0 mm 631.00 W/m2 CLR
12:49 -6.2 °C -13.4 °C 34259.5 hPa WSW 31.1 km/h 20.3 km/h 43 % 0 mm 585.00 W/m2 CLR
12:53 -6.2 °C -13 °C 34259.5 hPa WSW 31.1 km/h 23.3 km/h 45 % 0 mm 510.00 W/m2 FEW
12:58 -6.1 °C -13.5 °C 34259.5 hPa SW 38.8 km/h 20.3 km/h 42 % 0 mm 524.00 W/m2 FEW
13:03 -5.9 °C -13.2 °C 34259.5 hPa SW 33.6 km/h 24.6 km/h 43 % 0 mm 564.00 W/m2 FEW
13:08 -5.9 °C -13.6 °C 34249.4 hPa SW 32.8 km/h 15.6 km/h 41 % 0 mm 564.00 W/m2 CLR
13:13 -5.8 °C -13.5 °C 34246 hPa SSW 31.1 km/h 23 km/h 41 % 0 mm 722.00 W/m2 CLR
13:19 -5.7 °C -13.8 °C 34242.6 hPa SW 38.8 km/h 23 km/h 39 % 0 mm 694.00 W/m2 CLR
13:23 -5.7 °C -13.3 °C 34239.2 hPa West 15 km/h 6.4 km/h 41 % 0 mm 701.00 W/m2 CLR
13:28 -5.4 °C -13.4 °C 34235.8 hPa SW 35.7 km/h 25.6 km/h 40 % 0 mm 701.00 W/m2 CLR
13:34 -5.4 °C -13.8 °C 34232.5 hPa WSW 29.8 km/h 20.8 km/h 38 % 0 mm 686.00 W/m2 CLR
13:38 -5.4 °C -13.2 °C 34229.1 hPa WSW 26.9 km/h 14.8 km/h 41 % 0 mm 686.00 W/m2 CLR
13:43 -5.2 °C -13.4 °C 34232.5 hPa West 26.9 km/h 14.2 km/h 39 % 0 mm 682.00 W/m2 CLR
13:49 -5.2 °C -13.8 °C 34232.5 hPa WSW 26.9 km/h 13.7 km/h 37 % 0 mm 668.00 W/m2 CLR
13:53 -5.2 °C -14 °C 34229.1 hPa WSW 38.8 km/h 24.3 km/h 36 % 0 mm 663.00 W/m2 CLR
13:58 -5.2 °C -13.9 °C 34229.1 hPa SW 41.4 km/h 30.1 km/h 36 % 0 mm 661.00 W/m2 CLR
14:04 -5.1 °C -13.9 °C 34225.7 hPa SW 29.8 km/h 18.8 km/h 36 % 0 mm 594.00 W/m2 CLR
14:08 -5.1 °C -13.7 °C 34225.7 hPa South 35.7 km/h 20 km/h 37 % 0 mm 543.00 W/m2 CLR
14:13 -5.1 °C -13.7 °C 34225.7 hPa WSW 29.8 km/h 18.2 km/h 37 % 0 mm 626.00 W/m2 CLR
14:19 -5.1 °C -13.4 °C 34225.7 hPa WSW 41.4 km/h 24.6 km/h 38 % 0 mm 617.00 W/m2 CLR
14:23 -5.1 °C -13.5 °C 34222.3 hPa WSW 47.6 km/h 26.7 km/h 38 % 0 mm 591.00 W/m2 CLR
14:28 -5.1 °C -13.3 °C 34218.9 hPa SW 35.7 km/h 13.7 km/h 39 % 0 mm 606.00 W/m2 CLR
14:34 -5.1 °C -13 °C 34222.3 hPa SW 29.8 km/h 13.2 km/h 40 % 0 mm 594.00 W/m2 CLR
14:39 -4.9 °C -13.2 °C 34218.9 hPa West 33.6 km/h 21.2 km/h 39 % 0 mm 582.00 W/m2 CLR
14:43 -4.9 °C -13.1 °C 34218.9 hPa WSW 41.4 km/h 29.3 km/h 39 % 0 mm 575.00 W/m2 CLR
14:49 -4.9 °C -13.2 °C 34218.9 hPa SW 36.2 km/h 27.2 km/h 39 % 0 mm 559.00 W/m2 CLR
14:54 -5 °C -12.9 °C 34215.5 hPa WSW 29.8 km/h 16.9 km/h 40 % 0 mm 552.00 W/m2 CLR
14:58 -4.9 °C -13.2 °C 34218.9 hPa WNW 41.4 km/h 29.8 km/h 39 % 0 mm 541.00 W/m2 CLR
15:04 -5.1 °C -13.1 °C 34208.8 hPa WSW 29.8 km/h 17.4 km/h 40 % 0 mm 534.00 W/m2 CLR
15:09 -5.1 °C -13.2 °C 34208.8 hPa West 36.2 km/h 26.7 km/h 39 % 0 mm 515.00 W/m2 CLR
15:14 -5.1 °C -13 °C 34208.8 hPa WNW 23.8 km/h 15.6 km/h 40 % 0 mm 512.00 W/m2 CLR
15:19 -5 °C -12.7 °C 34208.8 hPa WNW 25.9 km/h 14.5 km/h 41 % 0 mm 499.00 W/m2 CLR
15:23 -5.1 °C -13.2 °C 34202 hPa WSW 33.6 km/h 25.6 km/h 39 % 0 mm 494.00 W/m2 CLR
15:28 -5.1 °C -13 °C 34202 hPa WSW 36.2 km/h 25.6 km/h 40 % 0 mm 478.00 W/m2 CLR
15:33 -5.1 °C -13 °C 34202 hPa SW 28.5 km/h 20.8 km/h 40 % 0 mm 471.00 W/m2 CLR
15:38 -4.9 °C -12.8 °C 34198.6 hPa NW 28.5 km/h 15 km/h 40 % 0 mm 455.00 W/m2 CLR
15:44 -4.8 °C -13 °C 34195.2 hPa SW 47.6 km/h 30.3 km/h 39 % 0 mm 441.00 W/m2 CLR
15:48 -4.9 °C -13.1 °C 34202 hPa West 41.4 km/h 29.8 km/h 39 % 0 mm 431.00 W/m2 CLR
15:53 -4.9 °C -12.9 °C 34198.6 hPa SW 33.6 km/h 21.2 km/h 40 % 0 mm 415.00 W/m2 CLR
15:59 -5 °C -12.9 °C 34202 hPa West 31.1 km/h 20 km/h 40 % 0 mm 401.00 W/m2 CLR
16:03 -5.1 °C -13.4 °C 34205.4 hPa West 38.8 km/h 26.9 km/h 38 % 0 mm 392.00 W/m2 CLR
16:08 -5.1 °C -13.7 °C 34205.4 hPa WNW 26.9 km/h 19.5 km/h 37 % 0 mm 378.00 W/m2 CLR
16:14 -4.9 °C -13.6 °C 34198.6 hPa West 33.6 km/h 25.6 km/h 37 % 0 mm 364.00 W/m2 CLR
16:18 -4.9 °C -13.3 °C 34195.2 hPa WSW 35.7 km/h 23.5 km/h 38 % 0 mm 352.00 W/m2 CLR
16:23 -4.9 °C -13.1 °C 34195.2 hPa West 36.2 km/h 24.3 km/h 39 % 0 mm 343.00 W/m2 CLR
16:29 -4.9 °C -13.2 °C 34195.2 hPa WSW 29.8 km/h 17.9 km/h 39 % 0 mm 320.00 W/m2 CLR
16:33 -4.9 °C -12.7 °C 34195.2 hPa SW 17.9 km/h 8 km/h 41 % 0 mm 311.00 W/m2 CLR
16:39 -4.9 °C -12.7 °C 34198.6 hPa WNW 18.2 km/h 14 km/h 41 % 0 mm 295.00 W/m2 CLR
16:44 -5.1 °C -12.8 °C 34202 hPa WSW 33.6 km/h 26.4 km/h 41 % 0 mm 281.00 W/m2 CLR
16:48 -5.1 °C -12.7 °C 34198.6 hPa WSW 38.8 km/h 19.2 km/h 42 % 0 mm 269.00 W/m2 CLR
16:54 -5.2 °C -12.6 °C 34198.6 hPa WSW 23.8 km/h 14.8 km/h 43 % 0 mm 251.00 W/m2 CLR
16:59 -5.2 °C -12.8 °C 34195.2 hPa WSW 26.9 km/h 20.9 km/h 42 % 0 mm 236.00 W/m2 CLR
17:03 -5.3 °C -12.6 °C 34198.6 hPa WSW 26.9 km/h 12.2 km/h 43 % 0 mm 225.00 W/m2 CLR
17:09 -5.3 °C -12.8 °C 34198.6 hPa West 23.8 km/h 14 km/h 42 % 0 mm 209.00 W/m2 CLR
17:14 -5.4 °C -12.9 °C 34198.6 hPa WSW 26.9 km/h 16.6 km/h 42 % 0 mm 188.00 W/m2 CLR
17:18 -5.4 °C -12.9 °C 34198.6 hPa West 23.8 km/h 16.6 km/h 42 % 0 mm 172.00 W/m2 CLR
17:24 -5.6 °C -13.1 °C 34202 hPa WNW 26.9 km/h 16.1 km/h 42 % 0 mm 155.00 W/m2 CLR
17:29 -5.7 °C -13 °C 34205.4 hPa SW 20.9 km/h 10.9 km/h 43 % 0 mm 135.00 W/m2 CLR
17:34 -5.7 °C -13 °C 34205.4 hPa WSW 25.9 km/h 17.4 km/h 43 % 0 mm 118.00 W/m2 CLR
17:39 -5.8 °C -12.9 °C 34208.8 hPa WNW 15.6 km/h 12.2 km/h 44 % 0 mm 100.00 W/m2 CLR
17:44 -5.9 °C -13.2 °C 34212.1 hPa WSW 20.8 km/h 13.7 km/h 43 % 0 mm 60.00 W/m2 CLR
17:49 -6.1 °C -13.3 °C 34215.5 hPa West 23.3 km/h 18.2 km/h 43 % 0 mm 54.00 W/m2 CLR
17:53 -6.2 °C -13.2 °C 34215.5 hPa WSW 31.1 km/h 19.6 km/h 44 % 0 mm 60.00 W/m2 CLR
17:58 -6.3 °C -13.4 °C 34215.5 hPa WSW 23.3 km/h 12.2 km/h 44 % 0 mm 47.00 W/m2 CLR
18:03 -6.4 °C -13.3 °C 34218.9 hPa West 15.6 km/h 11.9 km/h 45 % 0 mm 33.00 W/m2 CLR
18:08 -6.5 °C -13.2 °C 34218.9 hPa WSW 17.9 km/h 10.9 km/h 46 % 0 mm 26.00 W/m2 CLR
18:13 -6.6 °C -13.2 °C 34218.9 hPa West 15 km/h 7.7 km/h 46 % 0 mm 18.00 W/m2 CLR
18:19 -6.7 °C -13.3 °C 34218.9 hPa WNW 26.9 km/h 15.6 km/h 46 % 0 mm 11.00 W/m2 CLR
18:23 -6.8 °C -13.3 °C 34218.9 hPa WNW 20.9 km/h 14.5 km/h 47 % 0 mm 7.00 W/m2 CLR
18:28 -6.9 °C -13.4 °C 34218.9 hPa WNW 15.6 km/h 10.9 km/h 47 % 0 mm 0.00 W/m2 CLR
18:34 -7.1 °C -13.3 °C 34222.3 hPa WNW 15.6 km/h 8.5 km/h 48 % 0 mm 0.00 W/m2 CLR
18:38 -7.1 °C -13.4 °C 34222.3 hPa West 20.9 km/h 15 km/h 48 % 0 mm 0.00 W/m2 CLR
18:43 -7.2 °C -13.3 °C 34225.7 hPa WNW 26.9 km/h 17.5 km/h 49 % 0 mm 0.00 W/m2 CLR
18:49 -7.3 °C -13.4 °C 34225.7 hPa NW 20.9 km/h 16.1 km/h 49 % 0 mm 0.00 W/m2 CLR
18:53 -7.4 °C -13.5 °C 34225.7 hPa WNW 29.8 km/h 19.6 km/h 49 % 0 mm 0.00 W/m2 CLR
18:58 -7.6 °C -13.6 °C 34229.1 hPa WNW 20.8 km/h 14.2 km/h 49 % 0 mm 0.00 W/m2 CLR
19:04 -7.6 °C -13.5 °C 34232.5 hPa WNW 12.9 km/h 6.9 km/h 50 % 0 mm 0.00 W/m2 CLR
19:08 -7.7 °C -13.4 °C 34235.8 hPa WNW 15 km/h 9.3 km/h 51 % 0 mm 0.00 W/m2 CLR
19:13 -7.8 °C -13.5 °C 34235.8 hPa West 20.9 km/h 14.5 km/h 51 % 0 mm 0.00 W/m2 CLR
19:19 -7.8 °C -13.6 °C 34239.2 hPa WSW 23.3 km/h 15.3 km/h 51 % 0 mm 0.00 W/m2 CLR
19:23 -7.9 °C -13.4 °C 34246 hPa WSW 17.9 km/h 10.1 km/h 52 % 0 mm 0.00 W/m2 CLR
19:28 -7.9 °C -13.5 °C 34249.4 hPa West 9 km/h 5 km/h 52 % 0 mm 0.00 W/m2 CLR
19:34 -8 °C -13.6 °C 34256.2 hPa West 9 km/h 5.6 km/h 52 % 0 mm 0.00 W/m2 CLR
19:39 -8.2 °C -13.5 °C 34256.2 hPa West 11.9 km/h 8 km/h 53 % 0 mm 0.00 W/m2 CLR
19:44 -8.2 °C -13.6 °C 34256.2 hPa West 20.9 km/h 15.3 km/h 53 % 0 mm 0.00 W/m2 CLR
19:49 -8.3 °C -13.7 °C 34256.2 hPa West 15 km/h 5.5 km/h 53 % 0 mm 0.00 W/m2 CLR
19:54 -8.4 °C -13.7 °C 34256.2 hPa WNW 17.9 km/h 10.3 km/h 54 % 0 mm 0.00 W/m2 CLR
19:59 -8.5 °C -13.7 °C 34259.5 hPa West 10.3 km/h 6.9 km/h 54 % 0 mm 0.00 W/m2 CLR
20:04 -8.6 °C -13.7 °C 34259.5 hPa NW 20.8 km/h 9.7 km/h 54 % 0 mm 0.00 W/m2 CLR
20:09 -8.7 °C -13.8 °C 34259.5 hPa WNW 20.8 km/h 14.8 km/h 54 % 0 mm 0.00 W/m2 CLR
20:14 -8.7 °C -13.8 °C 34259.5 hPa West 12.9 km/h 9.7 km/h 54 % 0 mm 0.00 W/m2 CLR
20:19 -8.8 °C -14 °C 34262.9 hPa WNW 15.6 km/h 11.1 km/h 54 % 0 mm 0.00 W/m2 CLR
20:23 -8.8 °C -13.9 °C 34262.9 hPa NW 23.8 km/h 13.7 km/h 55 % 0 mm 0.00 W/m2 CLR
20:28 -8.9 °C -13.9 °C 34266.3 hPa West 18.2 km/h 14.2 km/h 55 % 0 mm 0.00 W/m2 CLR
20:33 -9.1 °C -14.1 °C 34269.7 hPa NW 20.8 km/h 14 km/h 55 % 0 mm 0.00 W/m2 CLR
20:38 -9.1 °C -14 °C 34269.7 hPa NW 18.2 km/h 9.8 km/h 56 % 0 mm 0.00 W/m2 CLR
20:43 -9.2 °C -14.1 °C 34269.7 hPa WNW 15.6 km/h 10.9 km/h 56 % 0 mm 0.00 W/m2 CLR
20:48 -9.3 °C -14 °C 34273.1 hPa West 10.3 km/h 6.4 km/h 57 % 0 mm 0.00 W/m2 CLR
20:53 -9.3 °C -14.1 °C 34273.1 hPa WNW 18.2 km/h 12.9 km/h 57 % 0 mm 0.00 W/m2 CLR
20:58 -9.4 °C -14 °C 34276.5 hPa NW 20.9 km/h 12.7 km/h 58 % 0 mm 0.00 W/m2 CLR
21:03 -9.5 °C -14.1 °C 34286.6 hPa ESE 18.2 km/h 9.8 km/h 58 % 0 mm 0.00 W/m2 CLR
21:09 -9.7 °C -14.1 °C 34293.4 hPa ESE 10.3 km/h 7.7 km/h 59 % 0 mm 0.00 W/m2 CLR
21:13 -9.8 °C -14.1 °C 34296.8 hPa ESE 10.3 km/h 8 km/h 60 % 0 mm 0.00 W/m2 CLR
21:18 -9.9 °C -14.1 °C 34303.6 hPa East 17.9 km/h 9 km/h 61 % 0 mm 0.00 W/m2 CLR
21:24 -10.1 °C -14.1 °C 34300.2 hPa East 7.7 km/h 3.9 km/h 61 % 0 mm 0.00 W/m2 CLR
21:28 -10.1 °C -14.1 °C 34307 hPa Calm     61 % 0 mm 0.00 W/m2 CLR
21:33 -10.1 °C -14.2 °C 34307 hPa East 12.9 km/h 7.7 km/h 61 % 0 mm 0.00 W/m2 CLR
21:39 -10.2 °C -14 °C 34310.3 hPa East 9 km/h 4.7 km/h 63 % 0 mm 0.00 W/m2 CLR
21:44 -10.2 °C -14.1 °C 34310.3 hPa East 12.9 km/h 6.9 km/h 63 % 0 mm 0.00 W/m2 CLR
21:48 -10.3 °C -14.1 °C 34310.3 hPa East 15 km/h 7.7 km/h 63 % 0 mm 0.00 W/m2 CLR
21:54 -10.3 °C -14.1 °C 34310.3 hPa East 6 km/h 4.3 km/h 63 % 0 mm 0.00 W/m2 CLR
21:59 -10.3 °C -14.2 °C 34313.7 hPa East 12.9 km/h 6.9 km/h 63 % 0 mm 0.00 W/m2 CLR
22:03 -10.4 °C -14.2 °C 34317.1 hPa NE 12.9 km/h 10.1 km/h 63 % 0 mm 0.00 W/m2 CLR
22:09 -10.4 °C -14.2 °C 34320.5 hPa North 10.3 km/h 8.2 km/h 63 % 0 mm 0.00 W/m2 CLR
22:14 -10.4 °C -14.1 °C 34317.1 hPa NNW 15.6 km/h 11.6 km/h 64 % 0 mm 0.00 W/m2 CLR
22:19 -10.4 °C -14.1 °C 34320.5 hPa NNW 12.9 km/h 10.9 km/h 64 % 0 mm 0.00 W/m2 CLR
22:24 -10.4 °C -14.1 °C 34320.5 hPa NNW 7.7 km/h 4.7 km/h 64 % 0 mm 0.00 W/m2 CLR
22:29 -10.4 °C -14.1 °C 34317.1 hPa NNW 12.9 km/h 10.6 km/h 64 % 0 mm 0.00 W/m2 CLR
22:34 -10.4 °C -14.2 °C 34317.1 hPa ENE 10.3 km/h 6.8 km/h 63 % 0 mm 0.00 W/m2 CLR
22:39 -10.6 °C -14.3 °C 34327.3 hPa ESE 12.9 km/h 8.2 km/h 64 % 0 mm 0.00 W/m2 CLR
22:44 -10.8 °C -14.3 °C 34327.3 hPa East 11.9 km/h 6.3 km/h 65 % 0 mm 0.00 W/m2 CLR
22:49 -10.7 °C -14.3 °C 34330.7 hPa East 11.9 km/h 4.7 km/h 65 % 0 mm 0.00 W/m2 CLR
22:53 -10.7 °C -14.4 °C 34330.7 hPa East 6 km/h 2.9 km/h 64 % 0 mm 0.00 W/m2 CLR
22:58 -10.6 °C -14.3 °C 34334 hPa East 5.1 km/h 2.6 km/h 64 % 0 mm 0.00 W/m2 CLR
23:03 -10.6 °C -14.3 °C 34337.4 hPa East 6 km/h 2.9 km/h 64 % 0 mm 0.00 W/m2 CLR
23:08 -10.7 °C -14.3 °C 34334 hPa East 6 km/h 4.2 km/h 64 % 0 mm 0.00 W/m2 CLR
23:13 -10.7 °C -14.4 °C 34334 hPa East 6 km/h 3.1 km/h 64 % 0 mm 0.00 W/m2 CLR
23:18 -10.7 °C -14.4 °C 34334 hPa East 6 km/h 3.9 km/h 64 % 0 mm 0.00 W/m2 CLR
23:23 -10.7 °C -14.3 °C 34334 hPa East 9 km/h 4.3 km/h 65 % 0 mm 0.00 W/m2 CLR
23:28 -10.8 °C -14.3 °C 34334 hPa East 12.9 km/h 8 km/h 65 % 0 mm 0.00 W/m2 CLR
23:34 -10.8 °C -14.2 °C 34334 hPa East 9 km/h 5.1 km/h 66 % 0 mm 0.00 W/m2 CLR
23:38 -10.8 °C -14.3 °C 34334 hPa East 9 km/h 5.6 km/h 66 % 0 mm 0.00 W/m2 CLR
23:43 -10.9 °C -14.2 °C 34337.4 hPa East 6 km/h 4.2 km/h 67 % 0 mm 0.00 W/m2 CLR
23:49 -10.9 °C -14.1 °C 34334 hPa ENE 9 km/h 5.5 km/h 68 % 0 mm 0.00 W/m2 CLR
23:53 -11 °C -14.2 °C 34334 hPa ENE 10.3 km/h 6.4 km/h 68 % 0 mm 0.00 W/m2 CLR
23:58 -11 °C -14.1 °C 34334 hPa NE 10.3 km/h 8 km/h 69 % 0 mm 0.00 W/m2 CLR
Juneau County Weather
Compliments of Weather Underground - 3.5 mb